sensor_id;sensor_type;location;lat;lon;timestamp;temperature;humidity
42031;DHT22;27709;52.036;5.906;2023-07-20T00:02:16;18.70;97.50
42031;DHT22;27709;52.036;5.906;2023-07-20T00:04:42;18.70;97.60
42031;DHT22;27709;52.036;5.906;2023-07-20T00:07:08;18.70;97.60
42031;DHT22;27709;52.036;5.906;2023-07-20T00:09:33;18.80;97.60
42031;DHT22;27709;52.036;5.906;2023-07-20T00:11:59;18.70;97.60
42031;DHT22;27709;52.036;5.906;2023-07-20T00:14:25;18.70;97.60
42031;DHT22;27709;52.036;5.906;2023-07-20T00:16:51;18.80;97.60
42031;DHT22;27709;52.036;5.906;2023-07-20T00:19:23;18.80;97.50
42031;DHT22;27709;52.036;5.906;2023-07-20T00:21:48;18.80;97.50
42031;DHT22;27709;52.036;5.906;2023-07-20T00:24:14;18.80;97.40
42031;DHT22;27709;52.036;5.906;2023-07-20T00:26:39;18.80;97.20
42031;DHT22;27709;52.036;5.906;2023-07-20T00:29:05;18.80;97.20
42031;DHT22;27709;52.036;5.906;2023-07-20T00:31:31;18.80;97.30
42031;DHT22;27709;52.036;5.906;2023-07-20T00:33:56;18.70;97.30
42031;DHT22;27709;52.036;5.906;2023-07-20T00:36:22;18.70;97.50
42031;DHT22;27709;52.036;5.906;2023-07-20T00:38:48;18.70;97.70
42031;DHT22;27709;52.036;5.906;2023-07-20T00:41:13;18.70;97.70
42031;DHT22;27709;52.036;5.906;2023-07-20T00:43:39;18.70;97.80
42031;DHT22;27709;52.036;5.906;2023-07-20T00:46:05;18.70;97.80
42031;DHT22;27709;52.036;5.906;2023-07-20T00:48:31;18.70;97.80
42031;DHT22;27709;52.036;5.906;2023-07-20T00:50:58;18.70;97.80
42031;DHT22;27709;52.036;5.906;2023-07-20T00:53:24;18.70;97.80
42031;DHT22;27709;52.036;5.906;2023-07-20T00:55:52;18.70;97.90
42031;DHT22;27709;52.036;5.906;2023-07-20T00:58:20;18.80;98.00
42031;DHT22;27709;52.036;5.906;2023-07-20T01:00:46;18.80;98.00
42031;DHT22;27709;52.036;5.906;2023-07-20T01:03:12;18.80;98.10
42031;DHT22;27709;52.036;5.906;2023-07-20T01:05:54;18.70;98.20
42031;DHT22;27709;52.036;5.906;2023-07-20T01:11:37;18.70;98.30
42031;DHT22;27709;52.036;5.906;2023-07-20T01:14:07;18.70;98.40
42031;DHT22;27709;52.036;5.906;2023-07-20T01:16:33;18.60;98.50
42031;DHT22;27709;52.036;5.906;2023-07-20T01:18:59;18.60;98.50
42031;DHT22;27709;52.036;5.906;2023-07-20T01:21:39;18.60;98.60
42031;DHT22;27709;52.036;5.906;2023-07-20T01:27:22;18.50;98.60
42031;DHT22;27709;52.036;5.906;2023-07-20T01:30:21;18.50;98.60
42031;DHT22;27709;52.036;5.906;2023-07-20T01:32:53;18.60;98.70
42031;DHT22;27709;52.036;5.906;2023-07-20T01:35:20;18.60;98.70
42031;DHT22;27709;52.036;5.906;2023-07-20T01:37:49;18.50;98.70
42031;DHT22;27709;52.036;5.906;2023-07-20T01:40:16;18.50;98.70
42031;DHT22;27709;52.036;5.906;2023-07-20T01:42:46;18.40;98.80
42031;DHT22;27709;52.036;5.906;2023-07-20T01:45:12;18.30;98.80
42031;DHT22;27709;52.036;5.906;2023-07-20T01:47:38;18.30;98.90
42031;DHT22;27709;52.036;5.906;2023-07-20T01:50:04;18.20;98.90
42031;DHT22;27709;52.036;5.906;2023-07-20T01:52:30;18.10;98.90
42031;DHT22;27709;52.036;5.906;2023-07-20T01:54:55;18.10;99.30
42031;DHT22;27709;52.036;5.906;2023-07-20T01:57:21;18.10;99.00
42031;DHT22;27709;52.036;5.906;2023-07-20T01:59:46;18.00;98.90
42031;DHT22;27709;52.036;5.906;2023-07-20T02:02:13;18.00;99.00
42031;DHT22;27709;52.036;5.906;2023-07-20T02:04:39;18.00;99.00
42031;DHT22;27709;52.036;5.906;2023-07-20T02:07:05;18.10;99.00
42031;DHT22;27709;52.036;5.906;2023-07-20T02:09:30;18.10;99.00
42031;DHT22;27709;52.036;5.906;2023-07-20T02:11:56;18.10;99.10
42031;DHT22;27709;52.036;5.906;2023-07-20T02:14:21;18.20;99.20
42031;DHT22;27709;52.036;5.906;2023-07-20T02:16:48;18.10;99.20
42031;DHT22;27709;52.036;5.906;2023-07-20T02:19:17;18.10;99.20
42031;DHT22;27709;52.036;5.906;2023-07-20T02:21:44;18.10;99.30
42031;DHT22;27709;52.036;5.906;2023-07-20T02:24:11;18.10;99.40
42031;DHT22;27709;52.036;5.906;2023-07-20T02:26:37;18.00;99.40
42031;DHT22;27709;52.036;5.906;2023-07-20T02:29:02;18.00;99.40
42031;DHT22;27709;52.036;5.906;2023-07-20T02:31:30;18.00;99.20
42031;DHT22;27709;52.036;5.906;2023-07-20T02:33:56;17.90;99.10
42031;DHT22;27709;52.036;5.906;2023-07-20T02:36:21;17.90;99.10
42031;DHT22;27709;52.036;5.906;2023-07-20T02:38:47;17.80;99.10
42031;DHT22;27709;52.036;5.906;2023-07-20T02:41:13;17.70;99.10
42031;DHT22;27709;52.036;5.906;2023-07-20T02:43:39;17.70;99.20
42031;DHT22;27709;52.036;5.906;2023-07-20T02:46:04;17.60;99.20
42031;DHT22;27709;52.036;5.906;2023-07-20T02:48:30;17.50;99.10
42031;DHT22;27709;52.036;5.906;2023-07-20T02:50:55;17.50;99.00
42031;DHT22;27709;52.036;5.906;2023-07-20T02:53:21;17.40;99.00
42031;DHT22;27709;52.036;5.906;2023-07-20T02:55:46;17.30;98.90
42031;DHT22;27709;52.036;5.906;2023-07-20T02:58:12;17.30;98.90
42031;DHT22;27709;52.036;5.906;2023-07-20T03:00:38;17.30;99.10
42031;DHT22;27709;52.036;5.906;2023-07-20T03:03:04;17.20;99.10
42031;DHT22;27709;52.036;5.906;2023-07-20T03:05:29;17.10;99.10
42031;DHT22;27709;52.036;5.906;2023-07-20T03:07:56;17.10;99.00
42031;DHT22;27709;52.036;5.906;2023-07-20T03:10:21;17.00;99.00
42031;DHT22;27709;52.036;5.906;2023-07-20T03:12:47;17.00;98.90
42031;DHT22;27709;52.036;5.906;2023-07-20T03:15:12;17.00;98.90
42031;DHT22;27709;52.036;5.906;2023-07-20T03:17:38;16.90;98.80
42031;DHT22;27709;52.036;5.906;2023-07-20T03:20:04;16.80;98.90
42031;DHT22;27709;52.036;5.906;2023-07-20T03:22:34;16.80;98.80
42031;DHT22;27709;52.036;5.906;2023-07-20T03:24:59;16.80;99.00
42031;DHT22;27709;52.036;5.906;2023-07-20T03:27:25;16.70;99.00
42031;DHT22;27709;52.036;5.906;2023-07-20T03:29:51;16.70;98.90
42031;DHT22;27709;52.036;5.906;2023-07-20T03:32:16;16.70;98.90
42031;DHT22;27709;52.036;5.906;2023-07-20T03:34:42;16.70;99.00
42031;DHT22;27709;52.036;5.906;2023-07-20T03:37:09;16.60;99.10
42031;DHT22;27709;52.036;5.906;2023-07-20T03:39:34;16.60;99.30
42031;DHT22;27709;52.036;5.906;2023-07-20T03:42:03;16.60;99.20
42031;DHT22;27709;52.036;5.906;2023-07-20T03:44:31;16.50;99.10
42031;DHT22;27709;52.036;5.906;2023-07-20T03:46:57;16.50;99.00
42031;DHT22;27709;52.036;5.906;2023-07-20T03:49:22;16.50;99.00
42031;DHT22;27709;52.036;5.906;2023-07-20T03:51:48;16.50;99.10
42031;DHT22;27709;52.036;5.906;2023-07-20T03:54:14;16.50;99.10
42031;DHT22;27709;52.036;5.906;2023-07-20T03:56:39;16.50;99.10
42031;DHT22;27709;52.036;5.906;2023-07-20T03:59:05;16.50;99.00
42031;DHT22;27709;52.036;5.906;2023-07-20T04:01:31;16.40;99.00
42031;DHT22;27709;52.036;5.906;2023-07-20T04:04:06;16.40;98.80
42031;DHT22;27709;52.036;5.906;2023-07-20T04:06:33;16.40;98.70
42031;DHT22;27709;52.036;5.906;2023-07-20T04:09:00;16.40;98.70
42031;DHT22;27709;52.036;5.906;2023-07-20T04:11:26;16.40;98.60
42031;DHT22;27709;52.036;5.906;2023-07-20T04:13:51;16.40;98.70
42031;DHT22;27709;52.036;5.906;2023-07-20T04:16:17;16.40;98.70
42031;DHT22;27709;52.036;5.906;2023-07-20T04:18:42;16.40;98.90
42031;DHT22;27709;52.036;5.906;2023-07-20T04:21:08;16.30;98.80
42031;DHT22;27709;52.036;5.906;2023-07-20T04:23:34;16.30;98.80
42031;DHT22;27709;52.036;5.906;2023-07-20T04:26:01;16.30;98.60
42031;DHT22;27709;52.036;5.906;2023-07-20T04:28:27;16.30;98.60
42031;DHT22;27709;52.036;5.906;2023-07-20T04:30:52;16.30;98.60
42031;DHT22;27709;52.036;5.906;2023-07-20T04:33:18;16.40;98.70
42031;DHT22;27709;52.036;5.906;2023-07-20T04:35:54;16.40;98.80
42031;DHT22;27709;52.036;5.906;2023-07-20T04:38:20;16.40;98.60
42031;DHT22;27709;52.036;5.906;2023-07-20T04:40:47;16.40;98.50
42031;DHT22;27709;52.036;5.906;2023-07-20T04:43:18;16.40;98.40
42031;DHT22;27709;52.036;5.906;2023-07-20T04:45:45;16.40;98.40
42031;DHT22;27709;52.036;5.906;2023-07-20T04:48:13;16.40;98.40
42031;DHT22;27709;52.036;5.906;2023-07-20T04:50:41;16.40;98.40
42031;DHT22;27709;52.036;5.906;2023-07-20T04:53:06;16.40;98.50
42031;DHT22;27709;52.036;5.906;2023-07-20T04:55:32;16.40;98.50
42031;DHT22;27709;52.036;5.906;2023-07-20T04:58:02;16.40;98.60
42031;DHT22;27709;52.036;5.906;2023-07-20T05:00:32;16.50;98.70
42031;DHT22;27709;52.036;5.906;2023-07-20T05:02:58;16.60;98.70
42031;DHT22;27709;52.036;5.906;2023-07-20T05:05:24;16.80;98.50
42031;DHT22;27709;52.036;5.906;2023-07-20T05:07:49;17.00;98.40
42031;DHT22;27709;52.036;5.906;2023-07-20T05:10:15;17.10;98.30
42031;DHT22;27709;52.036;5.906;2023-07-20T05:12:42;17.30;98.30
42031;DHT22;27709;52.036;5.906;2023-07-20T05:15:08;17.50;98.20
42031;DHT22;27709;52.036;5.906;2023-07-20T05:17:33;17.60;98.10
42031;DHT22;27709;52.036;5.906;2023-07-20T05:19:59;17.80;98.10
42031;DHT22;27709;52.036;5.906;2023-07-20T05:22:24;17.90;98.10
42031;DHT22;27709;52.036;5.906;2023-07-20T05:24:50;18.00;98.10
42031;DHT22;27709;52.036;5.906;2023-07-20T05:27:16;18.10;98.00
42031;DHT22;27709;52.036;5.906;2023-07-20T05:29:45;18.20;97.90
42031;DHT22;27709;52.036;5.906;2023-07-20T05:32:13;18.30;97.80
42031;DHT22;27709;52.036;5.906;2023-07-20T05:34:40;18.30;97.70
42031;DHT22;27709;52.036;5.906;2023-07-20T05:37:06;18.20;97.70
42031;DHT22;27709;52.036;5.906;2023-07-20T05:39:34;18.10;97.80
42031;DHT22;27709;52.036;5.906;2023-07-20T05:42:03;18.00;97.90
42031;DHT22;27709;52.036;5.906;2023-07-20T05:45:05;17.90;98.00
42031;DHT22;27709;52.036;5.906;2023-07-20T05:47:34;17.90;98.20
42031;DHT22;27709;52.036;5.906;2023-07-20T05:50:00;17.90;98.30
42031;DHT22;27709;52.036;5.906;2023-07-20T05:52:47;17.90;98.40
42031;DHT22;27709;52.036;5.906;2023-07-20T05:55:23;18.00;98.40
42031;DHT22;27709;52.036;5.906;2023-07-20T05:57:49;18.20;98.20
42031;DHT22;27709;52.036;5.906;2023-07-20T06:00:20;18.30;98.10
42031;DHT22;27709;52.036;5.906;2023-07-20T06:03:00;18.20;98.10
42031;DHT22;27709;52.036;5.906;2023-07-20T06:05:26;18.20;98.20
42031;DHT22;27709;52.036;5.906;2023-07-20T06:07:51;18.20;98.40
42031;DHT22;27709;52.036;5.906;2023-07-20T06:10:17;18.10;98.60
42031;DHT22;27709;52.036;5.906;2023-07-20T06:12:42;18.10;98.70
42031;DHT22;27709;52.036;5.906;2023-07-20T06:15:28;18.30;98.60
42031;DHT22;27709;52.036;5.906;2023-07-20T06:17:55;19.90;97.50
42031;DHT22;27709;52.036;5.906;2023-07-20T06:20:22;22.30;94.30
42031;DHT22;27709;52.036;5.906;2023-07-20T06:22:47;24.50;90.80
42031;DHT22;27709;52.036;5.906;2023-07-20T06:25:13;26.20;84.50
42031;DHT22;27709;52.036;5.906;2023-07-20T06:27:38;27.60;80.40
42031;DHT22;27709;52.036;5.906;2023-07-20T06:30:04;28.60;77.50
42031;DHT22;27709;52.036;5.906;2023-07-20T06:32:30;29.50;75.50
42031;DHT22;27709;52.036;5.906;2023-07-20T06:34:56;30.30;73.40
42031;DHT22;27709;52.036;5.906;2023-07-20T06:37:21;30.90;70.60
42031;DHT22;27709;52.036;5.906;2023-07-20T06:39:47;31.40;69.00
42031;DHT22;27709;52.036;5.906;2023-07-20T06:42:12;31.80;69.30
42031;DHT22;27709;52.036;5.906;2023-07-20T06:44:38;32.10;66.80
42031;DHT22;27709;52.036;5.906;2023-07-20T06:47:03;32.40;65.50
42031;DHT22;27709;52.036;5.906;2023-07-20T06:49:29;32.70;66.00
42031;DHT22;27709;52.036;5.906;2023-07-20T06:51:55;33.00;62.50
42031;DHT22;27709;52.036;5.906;2023-07-20T06:54:21;33.30;63.60
42031;DHT22;27709;52.036;5.906;2023-07-20T06:56:47;33.70;61.90
42031;DHT22;27709;52.036;5.906;2023-07-20T06:59:14;34.10;60.10
42031;DHT22;27709;52.036;5.906;2023-07-20T07:01:39;34.30;59.80
42031;DHT22;27709;52.036;5.906;2023-07-20T07:04:05;34.50;58.50
42031;DHT22;27709;52.036;5.906;2023-07-20T07:06:32;34.50;57.90
42031;DHT22;27709;52.036;5.906;2023-07-20T07:08:59;33.30;58.50
42031;DHT22;27709;52.036;5.906;2023-07-20T07:11:25;32.30;59.40
42031;DHT22;27709;52.036;5.906;2023-07-20T07:13:50;31.60;59.50
42031;DHT22;27709;52.036;5.906;2023-07-20T07:16:17;31.60;61.40
42031;DHT22;27709;52.036;5.906;2023-07-20T07:18:47;32.40;63.20
42031;DHT22;27709;52.036;5.906;2023-07-20T07:21:13;32.40;60.70
42031;DHT22;27709;52.036;5.906;2023-07-20T07:23:39;31.70;61.60
42031;DHT22;27709;52.036;5.906;2023-07-20T07:26:05;32.30;61.00
42031;DHT22;27709;52.036;5.906;2023-07-20T07:28:31;33.30;59.80
42031;DHT22;27709;52.036;5.906;2023-07-20T07:30:59;34.20;58.30
42031;DHT22;27709;52.036;5.906;2023-07-20T07:33:26;34.80;56.90
42031;DHT22;27709;52.036;5.906;2023-07-20T07:35:52;35.30;56.80
42031;DHT22;27709;52.036;5.906;2023-07-20T07:38:20;35.60;56.10
42031;DHT22;27709;52.036;5.906;2023-07-20T07:40:46;36.10;55.20
42031;DHT22;27709;52.036;5.906;2023-07-20T07:43:12;36.10;54.00
42031;DHT22;27709;52.036;5.906;2023-07-20T07:45:39;34.70;55.80
42031;DHT22;27709;52.036;5.906;2023-07-20T07:48:06;33.40;56.40
42031;DHT22;27709;52.036;5.906;2023-07-20T07:50:32;32.40;57.10
42031;DHT22;27709;52.036;5.906;2023-07-20T07:52:58;32.30;56.90
42031;DHT22;27709;52.036;5.906;2023-07-20T07:55:25;33.00;59.10
42031;DHT22;27709;52.036;5.906;2023-07-20T07:57:52;34.30;55.80
42031;DHT22;27709;52.036;5.906;2023-07-20T08:00:18;35.30;57.10
42031;DHT22;27709;52.036;5.906;2023-07-20T08:02:45;35.90;56.00
42031;DHT22;27709;52.036;5.906;2023-07-20T08:05:13;36.50;54.00
42031;DHT22;27709;52.036;5.906;2023-07-20T08:07:39;36.90;52.00
42031;DHT22;27709;52.036;5.906;2023-07-20T08:10:14;37.30;53.50
42031;DHT22;27709;52.036;5.906;2023-07-20T08:12:39;37.70;52.00
42031;DHT22;27709;52.036;5.906;2023-07-20T08:15:05;37.90;52.90
42031;DHT22;27709;52.036;5.906;2023-07-20T08:17:31;38.20;50.50
42031;DHT22;27709;52.036;5.906;2023-07-20T08:19:57;38.30;50.40
42031;DHT22;27709;52.036;5.906;2023-07-20T08:22:24;38.20;52.00
42031;DHT22;27709;52.036;5.906;2023-07-20T08:24:49;38.10;50.90
42031;DHT22;27709;52.036;5.906;2023-07-20T08:27:15;36.40;50.60
42031;DHT22;27709;52.036;5.906;2023-07-20T08:29:45;34.40;54.10
42031;DHT22;27709;52.036;5.906;2023-07-20T08:32:11;32.50;55.10
42031;DHT22;27709;52.036;5.906;2023-07-20T08:34:38;31.10;56.50
42031;DHT22;27709;52.036;5.906;2023-07-20T08:37:04;29.80;58.20
42031;DHT22;27709;52.036;5.906;2023-07-20T08:39:30;29.70;59.60
42031;DHT22;27709;52.036;5.906;2023-07-20T08:41:56;31.30;56.80
42031;DHT22;27709;52.036;5.906;2023-07-20T08:44:25;33.20;53.80
42031;DHT22;27709;52.036;5.906;2023-07-20T08:46:51;34.70;54.30
42031;DHT22;27709;52.036;5.906;2023-07-20T08:49:17;35.70;48.20
42031;DHT22;27709;52.036;5.906;2023-07-20T08:51:45;36.20;51.10
42031;DHT22;27709;52.036;5.906;2023-07-20T08:54:12;36.70;50.40
42031;DHT22;27709;52.036;5.906;2023-07-20T08:56:38;36.80;50.10
42031;DHT22;27709;52.036;5.906;2023-07-20T08:59:07;36.80;51.60
42031;DHT22;27709;52.036;5.906;2023-07-20T09:01:34;37.00;49.90
42031;DHT22;27709;52.036;5.906;2023-07-20T09:04:01;37.20;49.60
42031;DHT22;27709;52.036;5.906;2023-07-20T09:06:27;37.50;49.10
42031;DHT22;27709;52.036;5.906;2023-07-20T09:08:52;37.60;47.70
42031;DHT22;27709;52.036;5.906;2023-07-20T09:11:18;37.60;49.70
42031;DHT22;27709;52.036;5.906;2023-07-20T09:13:43;37.50;48.60
42031;DHT22;27709;52.036;5.906;2023-07-20T09:16:11;37.20;47.20
42031;DHT22;27709;52.036;5.906;2023-07-20T09:18:38;36.60;48.40
42031;DHT22;27709;52.036;5.906;2023-07-20T09:21:05;35.00;50.30
42031;DHT22;27709;52.036;5.906;2023-07-20T09:23:37;33.30;50.80
42031;DHT22;27709;52.036;5.906;2023-07-20T09:26:12;31.90;51.00
42031;DHT22;27709;52.036;5.906;2023-07-20T09:28:43;30.60;53.40
42031;DHT22;27709;52.036;5.906;2023-07-20T09:31:20;31.00;55.90
42031;DHT22;27709;52.036;5.906;2023-07-20T09:33:47;32.60;53.80
42031;DHT22;27709;52.036;5.906;2023-07-20T09:36:13;33.90;48.90
42031;DHT22;27709;52.036;5.906;2023-07-20T09:38:41;34.80;52.50
42031;DHT22;27709;52.036;5.906;2023-07-20T09:41:07;35.60;51.10
42031;DHT22;27709;52.036;5.906;2023-07-20T09:43:36;36.20;50.90
42031;DHT22;27709;52.036;5.906;2023-07-20T09:46:02;36.70;48.30
42031;DHT22;27709;52.036;5.906;2023-07-20T09:48:27;36.80;46.90
42031;DHT22;27709;52.036;5.906;2023-07-20T09:50:56;36.70;47.70
42031;DHT22;27709;52.036;5.906;2023-07-20T09:53:24;36.70;47.30
42031;DHT22;27709;52.036;5.906;2023-07-20T09:55:52;36.60;46.90
42031;DHT22;27709;52.036;5.906;2023-07-20T09:58:17;36.00;46.70
42031;DHT22;27709;52.036;5.906;2023-07-20T10:00:44;34.80;45.30
42031;DHT22;27709;52.036;5.906;2023-07-20T10:03:16;33.70;45.20
42031;DHT22;27709;52.036;5.906;2023-07-20T10:05:46;32.40;49.20
42031;DHT22;27709;52.036;5.906;2023-07-20T10:08:15;31.60;51.10
42031;DHT22;27709;52.036;5.906;2023-07-20T10:10:42;31.10;50.50
42031;DHT22;27709;52.036;5.906;2023-07-20T10:13:29;30.50;51.30
42031;DHT22;27709;52.036;5.906;2023-07-20T10:16:02;29.90;51.00
42031;DHT22;27709;52.036;5.906;2023-07-20T10:18:46;29.40;53.10
42031;DHT22;27709;52.036;5.906;2023-07-20T10:21:17;29.20;55.90
42031;DHT22;27709;52.036;5.906;2023-07-20T10:23:43;29.20;54.90
42031;DHT22;27709;52.036;5.906;2023-07-20T10:26:12;29.20;53.00
42031;DHT22;27709;52.036;5.906;2023-07-20T10:28:38;29.10;54.80
42031;DHT22;27709;52.036;5.906;2023-07-20T10:31:07;28.90;56.60
42031;DHT22;27709;52.036;5.906;2023-07-20T10:33:33;28.70;57.10
42031;DHT22;27709;52.036;5.906;2023-07-20T10:36:03;28.60;57.90
42031;DHT22;27709;52.036;5.906;2023-07-20T10:38:55;28.60;58.20
42031;DHT22;27709;52.036;5.906;2023-07-20T10:41:32;28.60;57.70
42031;DHT22;27709;52.036;5.906;2023-07-20T10:44:01;28.70;55.90
42031;DHT22;27709;52.036;5.906;2023-07-20T10:49:09;29.00;58.80
42031;DHT22;27709;52.036;5.906;2023-07-20T10:51:49;28.90;57.60
42031;DHT22;27709;52.036;5.906;2023-07-20T10:56:49;28.40;58.60
42031;DHT22;27709;52.036;5.906;2023-07-20T10:59:20;28.20;59.00
42031;DHT22;27709;52.036;5.906;2023-07-20T11:01:47;28.10;58.50
42031;DHT22;27709;52.036;5.906;2023-07-20T11:04:17;28.10;59.40
42031;DHT22;27709;52.036;5.906;2023-07-20T11:06:46;28.40;58.10
42031;DHT22;27709;52.036;5.906;2023-07-20T11:09:22;28.50;57.70
42031;DHT22;27709;52.036;5.906;2023-07-20T11:12:09;28.30;55.20
42031;DHT22;27709;52.036;5.906;2023-07-20T11:15:01;28.10;60.40
42031;DHT22;27709;52.036;5.906;2023-07-20T11:17:30;28.10;60.50
42031;DHT22;27709;52.036;5.906;2023-07-20T11:20:01;28.20;59.90
42031;DHT22;27709;52.036;5.906;2023-07-20T11:22:28;28.10;61.00
42031;DHT22;27709;52.036;5.906;2023-07-20T11:24:56;28.00;59.40
42031;DHT22;27709;52.036;5.906;2023-07-20T11:27:22;27.80;58.20
42031;DHT22;27709;52.036;5.906;2023-07-20T11:29:48;27.80;57.50
42031;DHT22;27709;52.036;5.906;2023-07-20T11:32:20;27.80;59.30
42031;DHT22;27709;52.036;5.906;2023-07-20T11:34:47;28.00;58.90
42031;DHT22;27709;52.036;5.906;2023-07-20T11:37:13;28.30;60.60
42031;DHT22;27709;52.036;5.906;2023-07-20T11:39:40;28.60;60.20
42031;DHT22;27709;52.036;5.906;2023-07-20T11:42:06;28.90;59.70
42031;DHT22;27709;52.036;5.906;2023-07-20T11:44:32;29.10;59.60
42031;DHT22;27709;52.036;5.906;2023-07-20T11:47:09;29.20;58.90
42031;DHT22;27709;52.036;5.906;2023-07-20T11:49:43;29.00;58.40
42031;DHT22;27709;52.036;5.906;2023-07-20T11:52:11;28.70;59.80
42031;DHT22;27709;52.036;5.906;2023-07-20T11:54:38;28.60;61.50
42031;DHT22;27709;52.036;5.906;2023-07-20T11:57:04;28.90;60.50
42031;DHT22;27709;52.036;5.906;2023-07-20T11:59:34;29.10;58.90
42031;DHT22;27709;52.036;5.906;2023-07-20T12:02:03;29.10;58.30
42031;DHT22;27709;52.036;5.906;2023-07-20T12:04:49;28.90;59.90
42031;DHT22;27709;52.036;5.906;2023-07-20T12:07:15;28.80;59.20
42031;DHT22;27709;52.036;5.906;2023-07-20T12:09:41;28.90;56.50
42031;DHT22;27709;52.036;5.906;2023-07-20T12:12:10;28.80;57.40
42031;DHT22;27709;52.036;5.906;2023-07-20T12:14:38;28.60;56.60
42031;DHT22;27709;52.036;5.906;2023-07-20T12:17:04;28.30;58.10
42031;DHT22;27709;52.036;5.906;2023-07-20T12:19:38;28.20;60.30
42031;DHT22;27709;52.036;5.906;2023-07-20T12:22:03;28.10;60.20
42031;DHT22;27709;52.036;5.906;2023-07-20T12:24:29;27.90;59.90
42031;DHT22;27709;52.036;5.906;2023-07-20T12:26:58;27.50;60.90
42031;DHT22;27709;52.036;5.906;2023-07-20T12:29:24;27.30;61.60
42031;DHT22;27709;52.036;5.906;2023-07-20T12:31:49;27.10;61.70
42031;DHT22;27709;52.036;5.906;2023-07-20T12:34:15;27.00;62.60
42031;DHT22;27709;52.036;5.906;2023-07-20T12:36:40;26.90;62.80
42031;DHT22;27709;52.036;5.906;2023-07-20T12:39:06;26.80;59.80
42031;DHT22;27709;52.036;5.906;2023-07-20T12:41:31;26.70;61.20
42031;DHT22;27709;52.036;5.906;2023-07-20T12:43:57;26.60;62.10
42031;DHT22;27709;52.036;5.906;2023-07-20T12:46:23;26.70;63.30
42031;DHT22;27709;52.036;5.906;2023-07-20T12:48:49;26.70;61.80
42031;DHT22;27709;52.036;5.906;2023-07-20T12:51:15;26.70;62.70
42031;DHT22;27709;52.036;5.906;2023-07-20T12:53:40;26.70;62.10
42031;DHT22;27709;52.036;5.906;2023-07-20T12:56:06;26.60;62.90
42031;DHT22;27709;52.036;5.906;2023-07-20T12:58:32;26.50;63.40
42031;DHT22;27709;52.036;5.906;2023-07-20T13:00:57;26.50;63.20
42031;DHT22;27709;52.036;5.906;2023-07-20T13:03:23;26.40;64.50
42031;DHT22;27709;52.036;5.906;2023-07-20T13:05:49;26.50;64.50
42031;DHT22;27709;52.036;5.906;2023-07-20T13:08:15;26.40;65.20
42031;DHT22;27709;52.036;5.906;2023-07-20T13:10:41;26.50;64.30
42031;DHT22;27709;52.036;5.906;2023-07-20T13:13:07;26.50;64.50
42031;DHT22;27709;52.036;5.906;2023-07-20T13:15:41;26.80;63.00
42031;DHT22;27709;52.036;5.906;2023-07-20T13:18:07;27.20;61.90
42031;DHT22;27709;52.036;5.906;2023-07-20T13:20:32;27.50;60.30
42031;DHT22;27709;52.036;5.906;2023-07-20T13:22:58;27.70;58.70
42031;DHT22;27709;52.036;5.906;2023-07-20T13:25:24;27.60;58.60
42031;DHT22;27709;52.036;5.906;2023-07-20T13:27:50;27.30;59.70
42031;DHT22;27709;52.036;5.906;2023-07-20T13:30:16;27.10;61.00
42031;DHT22;27709;52.036;5.906;2023-07-20T13:32:43;27.10;61.70
42031;DHT22;27709;52.036;5.906;2023-07-20T13:35:09;27.20;61.90
42031;DHT22;27709;52.036;5.906;2023-07-20T13:37:35;27.30;60.30
42031;DHT22;27709;52.036;5.906;2023-07-20T13:40:00;27.50;56.40
42031;DHT22;27709;52.036;5.906;2023-07-20T13:42:26;27.50;58.60
42031;DHT22;27709;52.036;5.906;2023-07-20T13:44:52;27.50;57.50
42031;DHT22;27709;52.036;5.906;2023-07-20T13:47:17;27.70;59.90
42031;DHT22;27709;52.036;5.906;2023-07-20T13:49:43;27.90;58.70
42031;DHT22;27709;52.036;5.906;2023-07-20T13:52:09;28.20;58.80
42031;DHT22;27709;52.036;5.906;2023-07-20T13:54:36;28.40;58.20
42031;DHT22;27709;52.036;5.906;2023-07-20T13:57:02;28.30;58.70
42031;DHT22;27709;52.036;5.906;2023-07-20T13:59:28;28.10;60.00
42031;DHT22;27709;52.036;5.906;2023-07-20T14:01:53;27.80;58.80
42031;DHT22;27709;52.036;5.906;2023-07-20T14:04:19;27.60;60.00
42031;DHT22;27709;52.036;5.906;2023-07-20T14:06:46;27.30;60.20
42031;DHT22;27709;52.036;5.906;2023-07-20T14:09:12;27.00;60.80
42031;DHT22;27709;52.036;5.906;2023-07-20T14:11:38;26.90;62.40
42031;DHT22;27709;52.036;5.906;2023-07-20T14:14:03;26.80;62.30
42031;DHT22;27709;52.036;5.906;2023-07-20T14:16:30;26.80;61.30
42031;DHT22;27709;52.036;5.906;2023-07-20T14:18:57;26.70;61.30
42031;DHT22;27709;52.036;5.906;2023-07-20T14:21:23;26.80;61.50
42031;DHT22;27709;52.036;5.906;2023-07-20T14:23:50;26.90;60.20
42031;DHT22;27709;52.036;5.906;2023-07-20T14:26:16;26.90;60.40
42031;DHT22;27709;52.036;5.906;2023-07-20T14:28:42;27.00;60.90
42031;DHT22;27709;52.036;5.906;2023-07-20T14:31:08;27.00;61.00
42031;DHT22;27709;52.036;5.906;2023-07-20T14:33:34;27.10;60.10
42031;DHT22;27709;52.036;5.906;2023-07-20T14:36:02;27.20;60.40
42031;DHT22;27709;52.036;5.906;2023-07-20T14:38:30;27.30;59.40
42031;DHT22;27709;52.036;5.906;2023-07-20T14:40:55;27.60;59.30
42031;DHT22;27709;52.036;5.906;2023-07-20T14:43:21;27.80;57.10
42031;DHT22;27709;52.036;5.906;2023-07-20T14:45:47;28.00;57.00
42031;DHT22;27709;52.036;5.906;2023-07-20T14:48:12;28.00;57.00
42031;DHT22;27709;52.036;5.906;2023-07-20T14:50:38;28.00;56.40
42031;DHT22;27709;52.036;5.906;2023-07-20T14:53:03;27.90;56.50
42031;DHT22;27709;52.036;5.906;2023-07-20T14:55:29;27.70;58.80
42031;DHT22;27709;52.036;5.906;2023-07-20T14:57:58;27.50;58.60
42031;DHT22;27709;52.036;5.906;2023-07-20T15:00:24;27.40;57.60
42031;DHT22;27709;52.036;5.906;2023-07-20T15:02:50;27.30;57.10
42031;DHT22;27709;52.036;5.906;2023-07-20T15:05:21;27.10;57.10
42031;DHT22;27709;52.036;5.906;2023-07-20T15:07:47;27.20;58.10
42031;DHT22;27709;52.036;5.906;2023-07-20T15:10:13;27.30;58.40
42031;DHT22;27709;52.036;5.906;2023-07-20T15:12:38;27.30;57.20
42031;DHT22;27709;52.036;5.906;2023-07-20T15:15:09;27.20;56.90
42031;DHT22;27709;52.036;5.906;2023-07-20T15:17:36;27.00;58.20
42031;DHT22;27709;52.036;5.906;2023-07-20T15:20:04;26.90;59.20
42031;DHT22;27709;52.036;5.906;2023-07-20T15:22:36;26.90;57.40
42031;DHT22;27709;52.036;5.906;2023-07-20T15:25:04;26.90;57.70
42031;DHT22;27709;52.036;5.906;2023-07-20T15:27:30;26.90;57.50
42031;DHT22;27709;52.036;5.906;2023-07-20T15:29:56;26.90;57.80
42031;DHT22;27709;52.036;5.906;2023-07-20T15:32:22;27.00;58.10
42031;DHT22;27709;52.036;5.906;2023-07-20T15:34:48;27.20;57.90
42031;DHT22;27709;52.036;5.906;2023-07-20T15:37:14;27.20;57.10
42031;DHT22;27709;52.036;5.906;2023-07-20T15:39:40;27.20;56.30
42031;DHT22;27709;52.036;5.906;2023-07-20T15:42:07;27.20;55.60
42031;DHT22;27709;52.036;5.906;2023-07-20T15:44:33;27.20;56.60